Time;durP1;ratioP1;P1;durP2;ratioP2;P2;SDS_P1;SDS_P2;PMS_P1;PMS_P2;Temp;Humidity;BMP_temperature;BMP_pressure;BME280_temperature;BME280_humidity;BME280_pressure;Samples;Min_cycle;Max_cycle;Signal;HPM_P1;HPM_P2
2021/12/10 00:00:48;;;;;;;15.68;8.40;;;;;;;;;;5085141;28;20024;-81
2021/12/10 00:03:37;;;;;;;12.55;6.88;;;;;;;;;;5080053;28;20040;-81
2021/12/10 00:06:32;;;;;;;13.25;7.65;;;;;;;;;;5083516;28;20480;-80
2021/12/10 00:09:23;;;;;;;13.85;7.75;;;;;;;;;;5084847;28;20055;-81
2021/12/10 00:12:11;;;;;;;;;;;;;;;;;;5086648;28;20094;-79
2021/12/10 00:14:58;;;;;;;13.43;7.22;;;;;;;;;;5084861;28;20906;-81
2021/12/10 00:17:45;;;;;;;12.15;6.40;;;;;;;;;;5068986;28;20024;-79
2021/12/10 00:20:33;;;;;;;15.02;7.90;;;;;;;;;;5085489;28;20036;-81
2021/12/10 00:23:20;;;;;;;14.02;7.30;;;;;;;;;;5086857;28;20419;-81
2021/12/10 00:26:06;;;;;;;12.43;7.43;;;;;;;;;;5071671;28;20034;-81
2021/12/10 00:29:01;;;;;;;16.00;7.25;;;;;;;;;;5088994;28;20040;-81
2021/12/10 00:31:53;;;;;;;11.30;6.20;;;;;;;;;;5081774;28;20058;-80
2021/12/10 00:34:42;;;;;;;13.32;7.82;;;;;;;;;;5081987;28;20043;-80
2021/12/10 00:37:28;;;;;;;11.90;6.78;;;;;;;;;;5067535;28;20038;-80
2021/12/10 00:40:17;;;;;;;11.00;6.30;;;;;;;;;;5086239;28;20036;-80
2021/12/10 00:43:03;;;;;;;13.02;7.55;;;;;;;;;;5086022;28;20035;-80
2021/12/10 00:45:50;;;;;;;12.20;6.32;;;;;;;;;;5083682;28;20028;-80
2021/12/10 00:48:37;;;;;;;13.48;6.88;;;;;;;;;;5086987;28;20038;-79
2021/12/10 00:51:24;;;;;;;13.18;7.63;;;;;;;;;;5084526;28;20066;-81
2021/12/10 00:54:12;;;;;;;14.40;7.30;;;;;;;;;;5085323;28;20044;-81
2021/12/10 00:56:59;;;;;;;10.15;6.28;;;;;;;;;;5085424;28;20036;-81
2021/12/10 00:59:47;;;;;;;12.05;6.95;;;;;;;;;;5065191;28;20044;-81
2021/12/10 01:02:34;;;;;;;12.85;7.15;;;;;;;;;;5083222;28;20632;-81
2021/12/10 01:05:21;;;;;;;12.23;6.78;;;;;;;;;;5070926;28;20028;-81
2021/12/10 01:08:08;;;;;;;12.13;7.32;;;;;;;;;;5083783;28;20028;-81
2021/12/10 01:10:58;;;;;;;11.23;6.78;;;;;;;;;;5083046;28;20024;-81
2021/12/10 01:13:48;;;;;;;12.52;7.07;;;;;;;;;;5084343;28;20871;-81
2021/12/10 01:25:37;;;;;;;12.52;6.72;;;;;;;;;;5084006;28;20035;-80
2021/12/10 01:28:24;;;;;;;12.60;6.78;;;;;;;;;;5084921;28;20491;-81
2021/12/10 01:31:10;;;;;;;10.13;6.13;;;;;;;;;;5082057;28;20085;-81
2021/12/10 01:33:57;;;;;;;13.07;6.95;;;;;;;;;;5079697;28;20379;-81
2021/12/10 01:36:44;;;;;;;14.32;6.90;;;;;;;;;;5069136;28;20016;-81
2021/12/10 01:39:34;;;;;;;11.65;6.28;;;;;;;;;;5084560;28;20038;-82
2021/12/10 01:42:37;;;;;;;10.63;5.88;;;;;;;;;;5082450;28;20928;-80
2021/12/10 01:45:25;;;;;;;11.15;6.35;;;;;;;;;;5080807;28;20040;-81
2021/12/10 01:48:15;;;;;;;11.93;6.85;;;;;;;;;;5081101;28;20034;-80
2021/12/10 01:51:03;;;;;;;10.23;5.72;;;;;;;;;;5065307;28;20584;-81
2021/12/10 01:53:51;;;;;;;10.40;5.95;;;;;;;;;;5082966;28;20043;-81
2021/12/10 01:56:39;;;;;;;10.80;6.57;;;;;;;;;;5084250;28;20791;-82
2021/12/10 01:59:28;;;;;;;11.77;6.47;;;;;;;;;;5083154;28;20411;-81
2021/12/10 02:02:18;;;;;;;11.85;6.80;;;;;;;;;;5068221;28;20024;-82
2021/12/10 02:05:07;;;;;;;11.63;6.75;;;;;;;;;;5080495;28;20971;-81
2021/12/10 02:07:54;;;;;;;13.10;6.57;;;;;;;;;;5083185;28;20093;-81
2021/12/10 02:10:41;;;;;;;12.82;7.03;;;;;;;;;;5082355;28;20444;-80
2021/12/10 02:13:28;;;;;;;12.80;7.15;;;;;;;;;;5080549;28;20044;-80
2021/12/10 02:16:16;;;;;;;12.65;6.82;;;;;;;;;;5082228;28;20042;-81
2021/12/10 02:19:03;;;;;;;13.02;7.20;;;;;;;;;;5084390;28;20468;-80
2021/12/10 02:21:50;;;;;;;14.02;6.75;;;;;;;;;;5080931;28;20071;-80
2021/12/10 02:24:36;;;;;;;10.68;6.57;;;;;;;;;;5081909;28;20024;-79
2021/12/10 02:27:23;;;;;;;11.25;5.85;;;;;;;;;;5083464;28;20028;-81
2021/12/10 02:30:11;;;;;;;12.27;6.32;;;;;;;;;;5085095;28;20036;-80
2021/12/10 02:32:58;;;;;;;11.98;6.20;;;;;;;;;;5079185;28;20064;-81
2021/12/10 02:35:44;;;;;;;11.55;6.25;;;;;;;;;;5080742;28;20021;-81
2021/12/10 02:38:31;;;;;;;11.82;6.90;;;;;;;;;;5077134;28;20051;-81
2021/12/10 02:41:20;;;;;;;12.30;6.93;;;;;;;;;;5067625;28;20032;-81
2021/12/10 02:44:07;;;;;;;10.50;5.93;;;;;;;;;;5066636;28;20032;-81
2021/12/10 02:46:55;;;;;;;11.90;6.30;;;;;;;;;;5084547;28;20036;-81
2021/12/10 02:49:42;;;;;;;11.35;6.05;;;;;;;;;;5069533;28;20032;-82
2021/12/10 02:52:28;;;;;;;13.07;7.00;;;;;;;;;;5080037;28;20042;-81
2021/12/10 02:55:16;;;;;;;11.80;6.60;;;;;;;;;;5082914;28;20043;-81
2021/12/10 02:58:07;;;;;;;12.80;6.82;;;;;;;;;;5080339;28;20031;-81
2021/12/10 03:00:56;;;;;;;13.30;6.15;;;;;;;;;;5084596;28;20047;-81
2021/12/10 03:03:43;;;;;;;13.98;8.00;;;;;;;;;;5085635;28;20399;-81
2021/12/10 03:06:31;;;;;;;11.70;6.82;;;;;;;;;;5081197;28;20036;-81
2021/12/10 03:09:19;;;;;;;13.68;6.88;;;;;;;;;;5084445;28;20028;-80
2021/12/10 03:12:06;;;;;;;10.43;5.78;;;;;;;;;;5086967;28;20044;-80
2021/12/10 03:14:55;;;;;;;11.32;6.25;;;;;;;;;;5072208;28;20638;-80
2021/12/10 03:17:42;;;;;;;12.23;7.07;;;;;;;;;;5084042;28;20038;-80
2021/12/10 03:20:30;;;;;;;11.75;6.65;;;;;;;;;;5083838;28;20047;-80
2021/12/10 03:23:17;;;;;;;11.82;6.80;;;;;;;;;;5087321;28;20035;-79
2021/12/10 03:26:04;;;;;;;12.18;6.60;;;;;;;;;;5085260;28;20024;-80
2021/12/10 03:28:52;;;;;;;12.00;6.38;;;;;;;;;;5071360;28;20042;-79
2021/12/10 03:31:39;;;;;;;11.13;6.38;;;;;;;;;;5084627;28;20514;-80
2021/12/10 03:34:26;;;;;;;11.70;7.22;;;;;;;;;;5084568;28;20036;-80
2021/12/10 03:37:17;;;;;;;10.20;5.82;;;;;;;;;;5083118;28;20038;-79
2021/12/10 03:40:05;;;;;;;12.25;6.13;;;;;;;;;;5083241;28;20039;-80
2021/12/10 03:42:58;;;;;;;13.30;7.13;;;;;;;;;;5083668;28;20034;-81
2021/12/10 03:45:47;;;;;;;10.77;6.03;;;;;;;;;;5087465;28;20471;-81
2021/12/10 03:48:35;;;;;;;10.20;5.95;;;;;;;;;;5084648;28;21294;-81
2021/12/10 03:51:24;;;;;;;10.90;6.38;;;;;;;;;;5086994;28;20036;-82
2021/12/10 03:54:12;;;;;;;11.20;6.00;;;;;;;;;;5085047;28;20032;-81
2021/12/10 03:56:59;;;;;;;13.15;6.93;;;;;;;;;;5087445;28;20028;-81
2021/12/10 03:59:46;;;;;;;14.65;6.88;;;;;;;;;;5087862;28;20036;-78
2021/12/10 04:02:33;;;;;;;10.80;6.32;;;;;;;;;;5084092;28;20031;-80
2021/12/10 04:05:20;;;;;;;10.73;5.85;;;;;;;;;;5082922;28;20574;-80
2021/12/10 04:08:07;;;;;;;12.85;6.75;;;;;;;;;;5085301;28;20029;-80
2021/12/10 04:10:54;;;;;;;15.10;7.00;;;;;;;;;;5084068;28;20043;-81
2021/12/10 04:13:41;;;;;;;12.90;7.30;;;;;;;;;;5069500;28;20688;-80
2021/12/10 04:16:29;;;;;;;12.25;6.20;;;;;;;;;;5085342;28;20036;-84
2021/12/10 04:19:16;;;;;;;13.85;7.25;;;;;;;;;;5087307;28;20024;-85
2021/12/10 04:22:04;;;;;;;13.57;6.70;;;;;;;;;;5086213;28;20753;-84
2021/12/10 04:24:51;;;;;;;11.90;6.70;;;;;;;;;;5071969;28;20041;-84
2021/12/10 04:27:38;;;;;;;12.32;6.35;;;;;;;;;;5087676;28;20743;-85
2021/12/10 04:30:26;;;;;;;14.45;6.97;;;;;;;;;;5085226;28;20047;-83
2021/12/10 04:33:15;;;;;;;13.95;6.80;;;;;;;;;;5082782;28;20362;-84
2021/12/10 04:36:03;;;;;;;12.80;6.60;;;;;;;;;;5085572;28;20047;-84
2021/12/10 04:38:49;;;;;;;13.95;7.57;;;;;;;;;;5089209;28;20042;-83
2021/12/10 04:41:37;;;;;;;11.43;6.28;;;;;;;;;;5077554;28;20050;-84
2021/12/10 04:44:23;;;;;;;12.82;6.35;;;;;;;;;;5089834;28;20028;-84
2021/12/10 04:47:10;;;;;;;13.05;6.95;;;;;;;;;;5078640;28;20048;-83
2021/12/10 04:49:57;;;;;;;14.57;6.40;;;;;;;;;;5077666;28;20028;-84
2021/12/10 04:52:44;;;;;;;12.93;6.45;;;;;;;;;;5088052;28;20040;-83
2021/12/10 04:55:31;;;;;;;13.23;6.95;;;;;;;;;;5092501;28;20482;-84
2021/12/10 04:58:18;;;;;;;11.93;6.90;;;;;;;;;;5091836;28;20469;-83
2021/12/10 05:01:05;;;;;;;14.45;7.32;;;;;;;;;;5095522;28;20028;-83
2021/12/10 05:03:52;;;;;;;14.82;7.50;;;;;;;;;;5097486;28;20032;-84
2021/12/10 05:06:39;;;;;;;12.45;6.30;;;;;;;;;;5099994;28;20375;-84
2021/12/10 05:09:27;;;;;;;12.50;6.30;;;;;;;;;;5098917;28;20032;-85
2021/12/10 05:12:14;;;;;;;12.57;6.25;;;;;;;;;;5104385;28;20020;-85
2021/12/10 05:15:02;;;;;;;13.90;6.80;;;;;;;;;;5102128;28;20032;-82
2021/12/10 05:17:50;;;;;;;13.30;6.47;;;;;;;;;;5087205;28;20506;-83
2021/12/10 05:20:38;;;;;;;14.45;7.75;;;;;;;;;;5077799;28;20054;-82
2021/12/10 05:23:25;;;;;;;12.80;6.80;;;;;;;;;;5095467;28;20042;-83
2021/12/10 05:26:12;;;;;;;15.43;7.45;;;;;;;;;;5090252;28;20034;-83
2021/12/10 05:28:59;;;;;;;13.50;7.10;;;;;;;;;;5090219;28;20047;-83
2021/12/10 05:31:46;;;;;;;13.57;7.07;;;;;;;;;;5075189;28;20051;-83
2021/12/10 05:34:33;;;;;;;13.85;7.00;;;;;;;;;;5086228;28;20028;-84
2021/12/10 05:37:19;;;;;;;13.02;6.47;;;;;;;;;;5073338;28;20032;-84
2021/12/10 05:40:10;;;;;;;14.98;7.13;;;;;;;;;;5085550;28;20612;-83
2021/12/10 05:42:57;;;;;;;13.27;7.13;;;;;;;;;;5084181;28;20038;-84
2021/12/10 05:45:44;;;;;;;13.55;7.10;;;;;;;;;;5068156;28;20038;-83
2021/12/10 05:48:31;;;;;;;12.85;7.28;;;;;;;;;;5083749;28;20388;-83
2021/12/10 05:51:18;;;;;;;15.80;7.57;;;;;;;;;;5085096;28;20399;-83
2021/12/10 05:54:05;;;;;;;14.45;6.90;;;;;;;;;;5084549;28;20048;-83
2021/12/10 05:56:52;;;;;;;14.30;7.15;;;;;;;;;;5082880;28;20028;-83
2021/12/10 05:59:38;;;;;;;17.77;9.18;;;;;;;;;;5082298;28;20499;-83
2021/12/10 06:02:25;;;;;;;16.33;7.47;;;;;;;;;;5083135;28;20036;-83
2021/12/10 06:05:12;;;;;;;14.30;7.40;;;;;;;;;;5085546;28;20036;-83
2021/12/10 06:07:59;;;;;;;17.13;8.32;;;;;;;;;;5083940;28;20023;-84
2021/12/10 06:10:46;;;;;;;16.05;7.18;;;;;;;;;;5087030;28;20400;-84
2021/12/10 06:13:33;;;;;;;15.80;7.90;;;;;;;;;;5082328;28;20059;-82
2021/12/10 06:16:20;;;;;;;14.13;7.10;;;;;;;;;;5085043;28;20489;-85
2021/12/10 06:19:07;;;;;;;24.17;8.02;;;;;;;;;;5082948;28;20056;-84
2021/12/10 06:21:54;;;;;;;17.58;7.30;;;;;;;;;;5085545;28;20062;-84
2021/12/10 06:24:41;;;;;;;15.93;7.88;;;;;;;;;;5083426;28;20406;-82
2021/12/10 06:27:28;;;;;;;13.07;6.43;;;;;;;;;;5085608;28;20227;-78
2021/12/10 06:30:17;;;;;;;12.48;6.60;;;;;;;;;;5082629;28;20123;-79
2021/12/10 06:33:05;;;;;;;14.50;6.47;;;;;;;;;;5082804;28;20052;-77
2021/12/10 06:35:52;;;;;;;13.45;6.32;;;;;;;;;;5083740;28;20032;-78
2021/12/10 06:38:39;;;;;;;14.93;7.45;;;;;;;;;;5078595;28;20036;-79
2021/12/10 06:41:26;;;;;;;17.70;8.65;;;;;;;;;;5081790;28;20466;-80
2021/12/10 06:44:13;;;;;;;14.88;7.57;;;;;;;;;;5079891;28;20038;-77
2021/12/10 06:46:59;;;;;;;17.10;7.60;;;;;;;;;;5081150;28;20028;-79
2021/12/10 06:49:46;;;;;;;17.45;7.47;;;;;;;;;;5082022;28;20024;-80
2021/12/10 06:52:33;;;;;;;17.17;7.90;;;;;;;;;;5080391;28;20049;-80
2021/12/10 06:55:19;;;;;;;17.77;7.80;;;;;;;;;;5083965;28;20043;-80
2021/12/10 06:58:07;;;;;;;18.08;8.38;;;;;;;;;;5082948;28;20032;-80
2021/12/10 07:00:59;;;;;;;16.15;8.07;;;;;;;;;;5079806;28;20573;-80
2021/12/10 07:03:46;;;;;;;15.68;7.43;;;;;;;;;;5083557;28;20036;-81
2021/12/10 07:06:33;;;;;;;19.85;8.35;;;;;;;;;;5084925;28;20792;-80
2021/12/10 07:09:24;;;;;;;13.82;7.60;;;;;;;;;;5083009;28;20037;-81
2021/12/10 07:12:12;;;;;;;14.38;7.93;;;;;;;;;;5085415;28;20044;-81
2021/12/10 07:15:01;;;;;;;17.38;8.70;;;;;;;;;;5079084;28;20041;-81
2021/12/10 07:17:49;;;;;;;18.52;8.90;;;;;;;;;;5082296;28;20028;-79
2021/12/10 07:20:37;;;;;;;16.55;8.60;;;;;;;;;;5083246;28;20051;-80
2021/12/10 07:23:23;;;;;;;14.55;8.20;;;;;;;;;;5084909;28;20402;-79
2021/12/10 07:26:11;;;;;;;17.90;9.90;;;;;;;;;;5084011;28;20573;-81
2021/12/10 07:28:58;;;;;;;17.33;8.50;;;;;;;;;;5083497;28;20043;-80
2021/12/10 07:31:46;;;;;;;20.63;11.57;;;;;;;;;;5070655;28;20048;-80
2021/12/10 07:34:32;;;;;;;22.65;12.90;;;;;;;;;;5086305;28;20529;-80
2021/12/10 07:37:21;;;;;;;23.08;11.50;;;;;;;;;;5086841;28;20459;-81
2021/12/10 07:40:09;;;;;;;21.45;10.93;;;;;;;;;;5072615;28;20055;-80
2021/12/10 07:42:56;;;;;;;20.52;10.70;;;;;;;;;;5085380;28;21389;-80
2021/12/10 07:45:46;;;;;;;21.73;12.32;;;;;;;;;;5081630;28;20042;-80
2021/12/10 07:48:35;;;;;;;18.65;10.77;;;;;;;;;;5088327;28;20035;-80
2021/12/10 07:51:26;;;;;;;22.80;13.25;;;;;;;;;;5084094;28;20043;-81
2021/12/10 07:54:12;;;;;;;24.27;13.10;;;;;;;;;;5085810;28;20039;-84
2021/12/10 07:56:59;;;;;;;19.90;10.45;;;;;;;;;;5087922;28;20504;-79
2021/12/10 07:59:48;;;;;;;20.08;11.18;;;;;;;;;;5087870;28;20039;-79
2021/12/10 08:02:35;;;;;;;19.52;11.32;;;;;;;;;;5072877;28;20490;-79
2021/12/10 08:05:22;;;;;;;21.02;11.55;;;;;;;;;;5085291;28;20024;-80
2021/12/10 08:08:10;;;;;;;24.05;13.70;;;;;;;;;;5086350;28;20507;-79
2021/12/10 08:10:57;;;;;;;22.92;13.48;;;;;;;;;;5085987;28;20040;-80
2021/12/10 08:13:44;;;;;;;22.77;12.35;;;;;;;;;;5085193;28;20547;-79
2021/12/10 08:16:30;;;;;;;27.48;15.57;;;;;;;;;;5083105;28;20024;-79
2021/12/10 08:19:17;;;;;;;26.02;14.27;;;;;;;;;;5085248;28;20395;-79
2021/12/10 08:22:05;;;;;;;19.13;11.30;;;;;;;;;;5085417;28;20024;-79
2021/12/10 08:24:52;;;;;;;22.35;12.75;;;;;;;;;;5084197;28;20129;-80
2021/12/10 08:27:38;;;;;;;26.38;16.08;;;;;;;;;;5083701;28;20032;-79
2021/12/10 08:30:26;;;;;;;25.85;14.43;;;;;;;;;;5070509;28;20032;-79
2021/12/10 08:33:13;;;;;;;25.77;15.48;;;;;;;;;;5071556;28;20514;-79
2021/12/10 08:36:03;;;;;;;25.02;13.95;;;;;;;;;;5085352;28;20031;-80
2021/12/10 08:38:51;;;;;;;26.38;15.90;;;;;;;;;;5086059;28;20058;-81
2021/12/10 08:41:38;;;;;;;28.05;16.17;;;;;;;;;;5087091;28;20430;-80
2021/12/10 08:44:26;;;;;;;29.75;18.45;;;;;;;;;;5085669;28;20036;-80
2021/12/10 08:47:14;;;;;;;25.63;13.20;;;;;;;;;;5083333;28;20040;-80
2021/12/10 08:50:01;;;;;;;29.65;16.73;;;;;;;;;;5090341;28;20036;-82
2021/12/10 08:52:48;;;;;;;29.23;17.77;;;;;;;;;;5101685;28;20046;-83
2021/12/10 08:55:36;;;;;;;22.38;13.13;;;;;;;;;;5101530;28;20024;-83
2021/12/10 08:58:22;;;;;;;22.83;13.52;;;;;;;;;;5104182;28;20028;-83
2021/12/10 09:01:11;;;;;;;30.23;15.27;;;;;;;;;;5103993;28;20036;-81
2021/12/10 09:03:59;;;;;;;30.33;17.70;;;;;;;;;;5092690;28;20368;-81
2021/12/10 09:06:49;;;;;;;23.25;13.77;;;;;;;;;;5105955;28;20018;-82
2021/12/10 09:09:36;;;;;;;34.30;19.15;;;;;;;;;;5107586;28;20096;-82
2021/12/10 09:12:26;;;;;;;23.00;12.25;;;;;;;;;;5108563;28;20047;-81
2021/12/10 09:15:18;;;;;;;24.52;15.98;;;;;;;;;;5100935;28;20032;-82
2021/12/10 09:18:04;;;;;;;;;;;;;;;;;;5103472;28;20028;-82
2021/12/10 09:20:52;;;;;;;26.60;15.27;;;;;;;;;;5090743;28;19918;-82
2021/12/10 09:23:39;;;;;;;30.58;17.98;;;;;;;;;;5096934;28;20020;-82
2021/12/10 09:26:27;;;;;;;28.92;18.05;;;;;;;;;;5090227;28;20035;-82
2021/12/10 09:29:15;;;;;;;33.13;19.23;;;;;;;;;;5092235;28;20024;-82
2021/12/10 09:32:03;;;;;;;30.35;17.42;;;;;;;;;;5092326;28;20048;-82
2021/12/10 09:34:50;;;;;;;26.38;17.50;;;;;;;;;;5087923;28;20036;-82
2021/12/10 09:37:37;;;;;;;28.83;16.20;;;;;;;;;;5086480;28;20023;-82
2021/12/10 09:40:30;;;;;;;26.23;15.82;;;;;;;;;;5086884;28;20036;-82
2021/12/10 09:43:17;;;;;;;37.90;21.52;;;;;;;;;;5088560;28;20028;-81
2021/12/10 09:46:04;;;;;;;27.17;15.70;;;;;;;;;;5086462;28;20050;-82
2021/12/10 09:48:50;;;;;;;29.38;17.88;;;;;;;;;;5082604;28;20032;-82
2021/12/10 09:51:40;;;;;;;30.55;17.25;;;;;;;;;;5082797;28;20391;-83
2021/12/10 09:54:28;;;;;;;31.08;18.85;;;;;;;;;;5084388;28;20696;-82
2021/12/10 09:57:41;;;;;;;22.30;14.13;;;;;;;;;;5083940;28;20020;-81
2021/12/10 10:00:35;;;;;;;27.88;18.90;;;;;;;;;;5084423;28;20043;-81
2021/12/10 10:03:24;;;;;;;26.25;16.35;;;;;;;;;;5085976;28;20036;-81
2021/12/10 10:06:11;;;;;;;19.80;12.63;;;;;;;;;;5083511;28;20384;-82
2021/12/10 10:08:58;;;;;;;33.10;21.08;;;;;;;;;;5083696;28;20035;-81
2021/12/10 10:11:45;;;;;;;28.17;18.85;;;;;;;;;;5085357;28;20047;-81
2021/12/10 10:14:33;;;;;;;25.83;15.68;;;;;;;;;;5084197;28;20034;-82
2021/12/10 10:17:20;;;;;;;21.67;13.10;;;;;;;;;;5083485;28;20032;-82
2021/12/10 10:20:08;;;;;;;29.98;18.05;;;;;;;;;;5080790;28;20023;-82
2021/12/10 10:22:55;;;;;;;32.65;19.25;;;;;;;;;;5084167;28;20085;-82
2021/12/10 10:25:44;;;;;;;21.98;13.50;;;;;;;;;;5084600;28;20028;-81
2021/12/10 10:28:30;;;;;;;27.80;18.20;;;;;;;;;;5084045;28;20034;-82
2021/12/10 10:31:19;;;;;;;29.33;17.73;;;;;;;;;;5084862;28;20034;-82
2021/12/10 10:34:07;;;;;;;29.92;18.10;;;;;;;;;;5044362;28;20048;-82
2021/12/10 10:36:55;;;;;;;30.48;18.70;;;;;;;;;;5042302;28;20041;-82
2021/12/10 10:39:43;;;;;;;31.45;18.95;;;;;;;;;;5045239;28;20036;-82
2021/12/10 10:42:30;;;;;;;28.05;18.65;;;;;;;;;;5043852;28;20041;-82
2021/12/10 10:45:20;;;;;;;29.02;17.52;;;;;;;;;;5047194;28;20041;-82
2021/12/10 10:48:07;;;;;;;27.63;17.70;;;;;;;;;;5038317;28;20037;-82
2021/12/10 10:51:03;;;;;;;28.80;18.27;;;;;;;;;;5045565;28;20040;-82
2021/12/10 10:53:51;;;;;;;28.10;17.73;;;;;;;;;;5044156;28;20044;-82
2021/12/10 10:56:46;;;;;;;31.73;19.65;;;;;;;;;;5044524;28;20021;-82
2021/12/10 10:59:32;;;;;;;32.72;19.45;;;;;;;;;;5046391;28;20037;-83
2021/12/10 11:02:19;;;;;;;21.60;13.88;;;;;;;;;;5045292;28;20029;-82
2021/12/10 11:05:10;;;;;;;32.28;19.60;;;;;;;;;;5043852;28;20029;-82
2021/12/10 11:08:00;;;;;;;29.13;16.02;;;;;;;;;;5050346;28;20043;-82
2021/12/10 11:10:47;;;;;;;28.00;17.13;;;;;;;;;;5054760;28;20039;-81
2021/12/10 11:13:34;;;;;;;23.55;14.68;;;;;;;;;;5049986;28;20457;-82
2021/12/10 11:16:22;;;;;;;23.88;14.68;;;;;;;;;;5041067;28;20033;-82
2021/12/10 11:19:11;;;;;;;30.63;18.00;;;;;;;;;;5042449;28;20400;-82
2021/12/10 11:22:05;;;;;;;33.35;20.92;;;;;;;;;;5044864;28;20040;-82
2021/12/10 11:24:55;;;;;;;27.00;17.08;;;;;;;;;;5049294;28;20048;-83
2021/12/10 11:27:43;;;;;;;29.85;20.42;;;;;;;;;;5048332;28;20040;-82
2021/12/10 11:30:30;;;;;;;30.50;18.02;;;;;;;;;;5047912;28;20493;-81
2021/12/10 11:33:18;;;;;;;27.95;16.05;;;;;;;;;;5076569;28;20055;-82
2021/12/10 11:36:07;;;;;;;32.15;21.23;;;;;;;;;;5084756;28;20404;-82
2021/12/10 11:38:56;;;;;;;30.20;18.80;;;;;;;;;;5088620;28;20074;-83
2021/12/10 11:41:43;;;;;;;34.88;23.00;;;;;;;;;;5090486;28;20031;-83
2021/12/10 11:45:04;;;;;;;27.23;17.20;;;;;;;;;;5089023;28;20039;-82
2021/12/10 11:47:51;;;;;;;28.77;17.77;;;;;;;;;;5096702;28;20028;-83
2021/12/10 11:50:41;;;;;;;26.23;16.58;;;;;;;;;;5098973;28;20036;-83
2021/12/10 11:53:35;;;;;;;27.60;17.55;;;;;;;;;;5087779;28;20046;-82
2021/12/10 11:56:26;;;;;;;28.25;17.85;;;;;;;;;;5087956;28;20793;-82
2021/12/10 11:59:13;;;;;;;;;;;;;;;;;;5090211;28;20040;-83
2021/12/10 12:02:02;;;;;;;31.90;19.88;;;;;;;;;;5087329;28;19908;-82
2021/12/10 12:04:54;;;;;;;21.48;13.52;;;;;;;;;;5088238;28;20028;-83
2021/12/10 12:07:42;;;;;;;19.15;11.68;;;;;;;;;;5085543;28;20040;-81
2021/12/10 12:10:37;;;;;;;22.98;13.27;;;;;;;;;;5085088;28;20028;-82
2021/12/10 12:16:16;;;;;;;28.20;18.35;;;;;;;;;;5081732;28;20479;-83
2021/12/10 12:19:03;;;;;;;25.30;14.32;;;;;;;;;;5083148;28;20040;-83
2021/12/10 12:21:57;;;;;;;28.90;18.70;;;;;;;;;;5086287;28;20039;-82
2021/12/10 12:28:03;;;;;;;21.58;13.80;;;;;;;;;;5086259;28;20032;-83
2021/12/10 12:31:06;;;;;;;24.52;17.05;;;;;;;;;;5084739;28;20473;-83
2021/12/10 12:33:57;;;;;;;30.00;19.10;;;;;;;;;;5087449;28;20418;-81
2021/12/10 12:36:56;;;;;;;29.17;17.67;;;;;;;;;;5086121;28;20032;-82
2021/12/10 12:39:48;;;;;;;30.67;19.27;;;;;;;;;;5084170;28;20027;-82
2021/12/10 12:42:38;;;;;;;31.13;20.42;;;;;;;;;;5086302;28;20028;-82
2021/12/10 12:45:26;;;;;;;25.10;16.23;;;;;;;;;;5087476;28;20413;-82
2021/12/10 12:48:14;;;;;;;27.83;19.38;;;;;;;;;;5081374;28;20029;-82
2021/12/10 12:51:46;;;;;;;29.20;19.92;;;;;;;;;;5085364;28;20038;-83
2021/12/10 12:54:33;;;;;;;29.50;18.55;;;;;;;;;;4972147;28;20042;-82
2021/12/10 12:57:19;;;;;;;15.30;10.40;;;;;;;;;;4986146;28;20479;-83
2021/12/10 13:00:12;;;;;;;25.83;16.52;;;;;;;;;;5078628;28;20039;-83
2021/12/10 13:03:01;;;;;;;28.80;18.67;;;;;;;;;;5087345;28;20028;-83
2021/12/10 13:05:51;;;;;;;20.80;12.63;;;;;;;;;;5086829;28;20024;-82
2021/12/10 13:08:40;;;;;;;20.20;12.88;;;;;;;;;;5084923;28;20426;-83
2021/12/10 13:11:47;;;;;;;33.08;20.42;;;;;;;;;;5084696;28;20024;-83
2021/12/10 13:14:46;;;;;;;14.65;11.15;;;;;;;;;;5083649;28;20127;-83
2021/12/10 13:17:37;;;;;;;24.65;17.00;;;;;;;;;;5082613;28;20033;-82
2021/12/10 13:20:25;;;;;;;22.38;15.70;;;;;;;;;;5083794;28;20040;-83
2021/12/10 13:23:14;;;;;;;31.38;20.20;;;;;;;;;;5070585;28;20495;-82
2021/12/10 13:26:01;;;;;;;21.73;13.98;;;;;;;;;;5088362;28;20020;-83
2021/12/10 13:28:48;;;;;;;26.90;16.23;;;;;;;;;;5087433;28;20036;-82
2021/12/10 13:31:36;;;;;;;15.05;9.77;;;;;;;;;;5087681;28;20028;-80
2021/12/10 13:34:23;;;;;;;25.92;16.83;;;;;;;;;;5086859;28;20692;-82
2021/12/10 13:37:12;;;;;;;30.90;20.30;;;;;;;;;;5087994;28;20125;-82
2021/12/10 13:40:00;;;;;;;34.20;20.30;;;;;;;;;;5087496;28;20051;-82
2021/12/10 13:42:47;;;;;;;26.50;15.68;;;;;;;;;;5085635;28;20028;-82
2021/12/10 13:45:36;;;;;;;21.08;13.93;;;;;;;;;;5075340;28;20610;-82
2021/12/10 13:48:36;;;;;;;20.52;12.20;;;;;;;;;;5088134;28;20038;-82
2021/12/10 13:51:28;;;;;;;32.45;18.33;;;;;;;;;;5088596;28;20040;-82
2021/12/10 13:54:22;;;;;;;26.08;15.82;;;;;;;;;;5098835;28;20044;-82
2021/12/10 13:57:11;;;;;;;21.48;13.65;;;;;;;;;;5104340;28;20025;-83
2021/12/10 14:00:00;;;;;;;25.50;14.85;;;;;;;;;;5105840;28;20036;-84
2021/12/10 14:02:48;;;;;;;26.98;17.08;;;;;;;;;;5097404;28;20038;-83
2021/12/10 14:05:37;;;;;;;32.45;20.42;;;;;;;;;;5097682;28;20028;-83
2021/12/10 14:08:24;;;;;;;26.65;17.42;;;;;;;;;;5098789;28;20038;-83
2021/12/10 14:11:24;;;;;;;31.85;19.15;;;;;;;;;;5087400;28;20053;-83
2021/12/10 14:14:11;;;;;;;24.10;15.32;;;;;;;;;;5093091;28;20044;-82
2021/12/10 14:17:00;;;;;;;35.10;20.33;;;;;;;;;;5075784;28;20032;-82
2021/12/10 14:19:48;;;;;;;28.13;18.23;;;;;;;;;;5084379;28;20058;-80
2021/12/10 14:22:41;;;;;;;27.20;18.02;;;;;;;;;;5072521;28;20029;-82
2021/12/10 14:25:36;;;;;;;28.25;19.02;;;;;;;;;;5087183;28;20387;-81
2021/12/10 14:28:41;;;;;;;23.45;14.25;;;;;;;;;;5085833;28;20050;-81
2021/12/10 14:31:37;;;;;;;21.05;14.20;;;;;;;;;;5070698;28;20027;-81
2021/12/10 14:34:24;;;;;;;26.40;17.33;;;;;;;;;;5086330;28;20081;-81
2021/12/10 14:37:11;;;;;;;35.35;21.38;;;;;;;;;;5084119;28;20031;-81
2021/12/10 14:40:04;;;;;;;29.92;19.20;;;;;;;;;;5087026;28;20418;-82
2021/12/10 14:43:07;;;;;;;22.58;14.38;;;;;;;;;;5083768;28;20038;-81
2021/12/10 14:45:56;;;;;;;32.47;21.05;;;;;;;;;;5085919;28;20113;-79
2021/12/10 14:49:01;;;;;;;22.65;13.73;;;;;;;;;;5087438;28;20024;-80
2021/12/10 14:52:04;;;;;;;28.88;20.05;;;;;;;;;;5086681;28;20034;-79
2021/12/10 14:54:51;;;;;;;22.45;14.73;;;;;;;;;;5084805;28;20500;-80
2021/12/10 14:57:47;;;;;;;20.85;12.15;;;;;;;;;;5088547;28;20483;-80
2021/12/10 15:00:33;;;;;;;12.93;8.80;;;;;;;;;;5090501;28;20044;-81
2021/12/10 15:03:24;;;;;;;27.35;17.23;;;;;;;;;;5088599;28;20031;-80
2021/12/10 15:06:13;;;;;;;22.88;13.02;;;;;;;;;;5082827;28;20038;-79
2021/12/10 15:09:04;;;;;;;17.00;11.63;;;;;;;;;;5089908;28;20032;-82
2021/12/10 15:12:00;;;;;;;19.13;13.02;;;;;;;;;;5088091;28;20037;-81
2021/12/10 15:14:54;;;;;;;22.17;14.35;;;;;;;;;;5087779;28;20074;-79
2021/12/10 15:17:44;;;;;;;17.50;12.15;;;;;;;;;;5087764;28;20191;-80
2021/12/10 15:20:32;;;;;;;14.48;9.52;;;;;;;;;;5089589;28;20040;-81
2021/12/10 15:23:19;;;;;;;24.05;15.05;;;;;;;;;;5088188;28;20394;-81
2021/12/10 15:26:06;;;;;;;18.92;12.30;;;;;;;;;;5088145;28;20036;-81
2021/12/10 15:28:54;;;;;;;17.77;12.00;;;;;;;;;;5074537;28;20062;-82
2021/12/10 15:31:41;;;;;;;17.27;10.95;;;;;;;;;;5086308;28;20036;-81
2021/12/10 15:34:29;;;;;;;22.58;13.68;;;;;;;;;;5086957;28;20052;-83
2021/12/10 15:37:20;;;;;;;17.85;10.23;;;;;;;;;;5084261;28;20037;-81
2021/12/10 15:40:12;;;;;;;21.60;12.75;;;;;;;;;;5084823;28;20055;-82
2021/12/10 15:43:03;;;;;;;11.65;7.88;;;;;;;;;;5087647;28;20403;-81
2021/12/10 15:45:52;;;;;;;18.25;11.65;;;;;;;;;;5072746;28;20028;-82
2021/12/10 15:48:40;;;;;;;14.30;11.05;;;;;;;;;;5087021;28;20028;-81
2021/12/10 15:51:32;;;;;;;14.23;7.80;;;;;;;;;;5072656;28;20036;-82
2021/12/10 15:54:26;;;;;;;19.17;11.30;;;;;;;;;;5086283;28;20040;-82
2021/12/10 15:57:19;;;;;;;15.73;9.82;;;;;;;;;;5075356;28;20510;-81
2021/12/10 16:00:08;;;;;;;15.65;9.07;;;;;;;;;;5069801;28;20036;-81
2021/12/10 16:02:57;;;;;;;16.70;10.80;;;;;;;;;;5085410;28;20240;-80
2021/12/10 16:05:44;;;;;;;9.63;6.25;;;;;;;;;;5083947;28;20040;-83
2021/12/10 16:08:32;;;;;;;13.80;8.02;;;;;;;;;;5082256;28;20060;-82
2021/12/10 16:11:20;;;;;;;20.10;11.80;;;;;;;;;;5083349;28;20032;-82
2021/12/10 16:14:07;;;;;;;10.50;7.40;;;;;;;;;;5087244;28;20484;-79
2021/12/10 16:16:54;;;;;;;11.85;8.05;;;;;;;;;;5084322;28;20028;-78
2021/12/10 16:19:41;;;;;;;10.93;7.30;;;;;;;;;;5071079;28;20036;-79
2021/12/10 16:22:30;;;;;;;14.02;7.82;;;;;;;;;;5086575;28;20025;-79
2021/12/10 16:25:16;;;;;;;14.50;8.45;;;;;;;;;;5071292;28;20519;-79
2021/12/10 16:28:03;;;;;;;13.55;9.10;;;;;;;;;;5088596;28;20046;-76
2021/12/10 16:30:55;;;;;;;14.38;8.45;;;;;;;;;;5085891;28;20035;-78
2021/12/10 16:33:43;;;;;;;11.95;7.13;;;;;;;;;;5070060;28;20512;-78
2021/12/10 16:36:30;;;;;;;11.88;7.05;;;;;;;;;;5082876;28;20529;-78
2021/12/10 16:39:17;;;;;;;8.27;5.28;;;;;;;;;;5085490;28;20526;-78
2021/12/10 16:42:05;;;;;;;8.35;5.15;;;;;;;;;;5084202;28;20028;-79
2021/12/10 16:44:52;;;;;;;7.97;5.15;;;;;;;;;;5085893;28;20036;-79